createdAt,value
2022-08-05T00:00:55.433Z,20.42
2022-08-05T00:04:05.010Z,18.73
2022-08-05T00:07:26.809Z,17.20
2022-08-05T00:10:31.863Z,23.48
2022-08-05T00:13:40.063Z,19.10
2022-08-05T00:16:53.076Z,20.15
2022-08-05T00:20:02.662Z,17.90
2022-08-05T00:23:12.723Z,20.52
2022-08-05T00:26:17.336Z,20.70
2022-08-05T00:29:22.635Z,23.95
2022-08-05T00:32:26.168Z,18.73
2022-08-05T00:35:33.189Z,16.40
2022-08-05T00:38:38.897Z,22.95
2022-08-05T00:41:55.445Z,15.82
2022-08-05T00:45:00.684Z,19.02
2022-08-05T00:48:05.538Z,18.42
2022-08-05T00:51:51.795Z,19.17
2022-08-05T00:54:32.693Z,15.25
2022-08-05T00:57:55.515Z,16.13
2022-08-05T01:01:01.212Z,19.05
2022-08-05T01:04:13.698Z,19.35
2022-08-05T01:07:18.082Z,16.50
2022-08-05T01:10:25.814Z,17.42
2022-08-05T01:13:58.752Z,18.70
2022-08-05T01:17:07.713Z,16.00
2022-08-05T01:20:20.555Z,11.83
2022-08-05T01:23:37.312Z,19.20
2022-08-05T01:26:53.050Z,15.73
2022-08-05T01:30:02.582Z,23.00
2022-08-05T01:33:10.451Z,19.20
2022-08-05T01:36:17.941Z,16.38
2022-08-05T01:39:45.601Z,16.50
2022-08-05T01:42:50.082Z,18.52
2022-08-05T01:45:57.002Z,17.45
2022-08-05T01:49:02.972Z,16.67
2022-08-05T01:52:28.047Z,18.15
2022-08-05T01:55:36.012Z,16.88
2022-08-05T02:03:16.372Z,16.70
2022-08-05T02:06:38.445Z,18.20
2022-08-05T02:09:42.539Z,18.35
2022-08-05T02:12:57.177Z,18.75
2022-08-05T02:16:06.877Z,17.88
2022-08-05T02:19:26.435Z,19.17
2022-08-05T02:22:36.272Z,17.35
2022-08-05T02:25:50.227Z,20.70
2022-08-05T02:28:56.020Z,19.27
2022-08-05T02:32:04.570Z,21.42
2022-08-05T02:35:14.251Z,22.02
2022-08-05T02:38:19.939Z,17.70
2022-08-05T02:41:28.865Z,17.58
2022-08-05T02:44:40.983Z,18.13
2022-08-05T02:48:07.033Z,19.48
2022-08-05T02:51:10.778Z,16.45
2022-08-05T02:54:36.108Z,18.35
2022-08-05T02:58:10.618Z,21.75
2022-08-05T03:01:05.389Z,16.92
2022-08-05T03:04:14.145Z,17.13
2022-08-05T03:07:59.238Z,17.35
2022-08-05T03:11:01.302Z,19.17
2022-08-05T03:14:08.777Z,18.05
2022-08-05T03:17:16.534Z,16.63
2022-08-05T03:20:19.826Z,16.92
2022-08-05T03:23:24.196Z,17.20
2022-08-05T03:26:31.902Z,16.67
2022-08-05T03:29:45.972Z,17.60
2022-08-05T03:33:00.762Z,18.63
2022-08-05T03:36:06.622Z,17.63
2022-08-05T03:39:20.133Z,16.23
2022-08-05T03:42:32.339Z,14.85
2022-08-05T03:45:57.754Z,15.93
2022-08-05T03:49:01.900Z,17.63
2022-08-05T03:52:36.873Z,17.23
2022-08-05T03:56:09.782Z,16.20
2022-08-05T03:59:07.498Z,15.40
2022-08-05T04:02:14.992Z,17.87
2022-08-05T04:05:21.349Z,18.55
2022-08-05T04:08:36.463Z,14.65
2022-08-05T04:11:50.409Z,17.30
2022-08-05T04:14:57.600Z,16.27
2022-08-05T04:18:03.878Z,15.48
2022-08-05T04:21:10.943Z,16.77
2022-08-05T04:24:19.502Z,15.00
2022-08-05T04:27:41.760Z,15.63
2022-08-05T04:30:48.943Z,19.17
2022-08-05T04:34:17.165Z,19.25
2022-08-05T04:37:16.396Z,14.48
2022-08-05T04:40:20.121Z,19.70
2022-08-05T04:43:23.439Z,20.90
2022-08-05T04:46:30.753Z,26.38
2022-08-05T04:49:38.348Z,17.70
2022-08-05T04:52:57.549Z,20.08
2022-08-05T04:56:15.192Z,17.65
2022-08-05T04:59:26.669Z,23.75
2022-08-05T05:02:43.550Z,16.35
2022-08-05T05:06:39.968Z,17.45
2022-08-05T05:09:13.994Z,14.73
2022-08-05T05:15:57.220Z,15.50
2022-08-05T05:19:16.554Z,12.75
2022-08-05T05:22:24.101Z,12.45
2022-08-05T05:25:32.647Z,12.15
2022-08-05T05:28:42.643Z,16.88
2022-08-05T05:31:46.685Z,14.27
2022-08-05T05:34:52.444Z,13.82
2022-08-05T05:37:59.794Z,10.63
2022-08-05T05:41:05.312Z,11.97
2022-08-05T05:44:35.621Z,14.48
2022-08-05T05:48:05.559Z,12.82
2022-08-05T05:51:13.040Z,13.30
2022-08-05T05:54:19.707Z,10.77
2022-08-05T05:57:23.103Z,14.88
2022-08-05T06:00:27.746Z,21.13
2022-08-05T06:03:53.932Z,16.40
2022-08-05T06:16:29.806Z,16.15
2022-08-05T06:19:37.087Z,21.63
2022-08-05T06:26:53.294Z,17.77
2022-08-05T07:00:22.467Z,10.30
2022-08-05T07:03:32.463Z,11.77
2022-08-05T07:06:36.534Z,9.57
2022-08-05T07:09:40.666Z,10.82
2022-08-05T07:13:04.674Z,11.52
2022-08-05T07:17:56.990Z,10.43
2022-08-05T07:20:31.717Z,11.82
2022-08-05T07:23:26.388Z,8.75
2022-08-05T07:26:33.004Z,12.60
2022-08-05T07:30:23.909Z,7.63
2022-08-05T07:33:01.376Z,9.63
2022-08-05T07:36:21.276Z,17.98
2022-08-05T07:40:04.273Z,11.35
2022-08-05T07:42:48.285Z,10.35
2022-08-05T07:45:57.014Z,8.80
2022-08-05T07:49:06.121Z,11.13
2022-08-05T07:52:11.240Z,8.50
2022-08-05T07:55:16.017Z,9.15
2022-08-05T07:58:58.700Z,12.15
2022-08-05T08:02:03.149Z,9.65
2022-08-05T08:05:08.349Z,8.48
2022-08-05T08:08:15.155Z,10.02
2022-08-05T08:11:18.671Z,13.88
2022-08-05T08:14:31.122Z,9.40
2022-08-05T08:17:35.281Z,9.23
2022-08-05T08:20:45.293Z,10.43
2022-08-05T08:24:05.637Z,11.65
2022-08-05T08:27:10.132Z,8.15
2022-08-05T08:30:32.667Z,10.32
2022-08-05T08:33:42.064Z,10.75
2022-08-05T08:36:54.640Z,11.43
2022-08-05T08:40:00.277Z,8.40
2022-08-05T08:45:19.418Z,10.82
2022-08-05T08:46:33.476Z,11.43
2022-08-05T08:50:07.615Z,9.90
2022-08-05T08:53:08.177Z,9.00
2022-08-05T08:56:15.707Z,7.00
2022-08-05T08:59:20.076Z,9.48
2022-08-05T09:02:26.863Z,15.95
2022-08-05T09:05:38.767Z,8.13
2022-08-05T09:08:55.199Z,8.27
2022-08-05T09:12:03.352Z,9.95
2022-08-05T09:15:17.007Z,19.00
2022-08-05T09:18:20.693Z,8.90
2022-08-05T09:22:21.939Z,9.07
2022-08-05T09:25:00.445Z,7.00
2022-08-05T09:28:15.794Z,8.48
2022-08-05T09:32:40.726Z,10.18
2022-08-05T09:34:49.833Z,10.60
2022-08-05T09:38:16.564Z,7.90
2022-08-05T09:41:19.517Z,15.35
2022-08-05T09:44:35.267Z,8.95
2022-08-05T09:47:56.320Z,12.80
2022-08-05T09:51:02.285Z,9.02
2022-08-05T09:54:09.305Z,10.35
2022-08-05T09:57:30.658Z,17.80
2022-08-05T10:00:39.475Z,9.52
2022-08-05T10:03:59.457Z,11.57
2022-08-05T10:07:19.659Z,6.18
2022-08-05T10:10:28.269Z,7.97
2022-08-05T10:13:47.476Z,15.80
2022-08-05T10:16:53.493Z,18.05
2022-08-05T10:20:03.972Z,11.77
2022-08-05T10:23:34.730Z,6.85
2022-08-05T10:26:51.344Z,6.65
2022-08-05T10:30:07.123Z,6.88
2022-08-05T10:33:21.437Z,30.30
2022-08-05T10:36:26.077Z,9.10
2022-08-05T10:40:03.610Z,8.73
2022-08-05T10:43:04.690Z,6.97
2022-08-05T10:46:12.164Z,8.48
2022-08-05T10:49:16.794Z,8.45
2022-08-05T10:52:46.993Z,6.45
2022-08-05T10:56:21.633Z,12.32
2022-08-05T11:00:02.547Z,12.15
2022-08-05T11:03:24.233Z,11.77
2022-08-05T11:06:30.893Z,6.25
2022-08-05T11:09:46.942Z,6.00
2022-08-05T11:12:54.856Z,10.50
2022-08-05T11:16:22.815Z,10.38
2022-08-05T11:20:10.433Z,9.23
2022-08-05T11:24:02.492Z,10.35
2022-08-05T11:27:51.386Z,8.88
2022-08-05T11:31:54.345Z,11.20
2022-08-05T11:34:57.280Z,8.20
2022-08-05T11:38:30.245Z,9.85
2022-08-05T11:41:56.477Z,9.00
2022-08-05T11:44:52.938Z,5.53
2022-08-05T11:47:58.634Z,7.43
2022-08-05T11:51:05.568Z,7.28
2022-08-05T11:54:09.528Z,9.77
2022-08-05T11:57:25.024Z,7.50
2022-08-05T12:00:30.418Z,8.13
2022-08-05T12:03:43.761Z,7.65
2022-08-05T12:07:02.451Z,9.85
2022-08-05T12:10:12.328Z,7.00
2022-08-05T12:13:27.867Z,7.32
2022-08-05T12:16:45.631Z,5.55
2022-08-05T12:20:16.627Z,7.03
2022-08-05T12:23:16.172Z,5.30
2022-08-05T12:26:19.504Z,8.57
2022-08-05T12:29:24.790Z,14.77
2022-08-05T12:32:28.184Z,5.93
2022-08-05T12:35:37.264Z,5.25
2022-08-05T12:38:45.035Z,9.68
2022-08-05T12:41:48.968Z,16.05
2022-08-05T12:44:52.296Z,9.40
2022-08-05T12:48:01.777Z,10.00
2022-08-05T12:51:21.768Z,7.28
2022-08-05T12:54:46.426Z,7.65
2022-08-05T12:58:49.663Z,9.85
2022-08-05T13:02:01.887Z,7.53
2022-08-05T13:04:52.334Z,10.85
2022-08-05T13:08:01.015Z,11.63
2022-08-05T13:11:06.389Z,11.82
2022-08-05T13:14:19.485Z,9.77
2022-08-05T13:17:31.584Z,6.93
2022-08-05T13:20:44.655Z,9.35
2022-08-05T13:23:50.637Z,7.43
2022-08-05T13:26:56.989Z,10.27
2022-08-05T13:30:35.460Z,11.20
2022-08-05T13:34:22.109Z,6.20
2022-08-05T13:36:48.960Z,5.65
2022-08-05T13:40:16.699Z,6.68
2022-08-05T13:43:22.049Z,6.13
2022-08-05T13:46:37.757Z,8.70
2022-08-05T13:49:52.505Z,8.23
2022-08-05T13:53:00.324Z,6.75
2022-08-05T13:56:04.549Z,6.47
2022-08-05T13:59:27.333Z,5.75
2022-08-05T14:02:33.299Z,7.35
2022-08-05T14:06:04.909Z,6.45
2022-08-05T14:09:01.376Z,7.63
2022-08-05T14:12:17.872Z,9.20
2022-08-05T14:16:08.353Z,8.98
2022-08-05T14:18:50.000Z,12.27
2022-08-05T14:22:09.337Z,8.80
2022-08-05T14:25:21.824Z,8.95
2022-08-05T14:28:26.880Z,7.00
2022-08-05T14:32:03.209Z,6.93
2022-08-05T14:34:56.946Z,9.45
2022-08-05T14:38:01.233Z,7.32
2022-08-05T14:41:07.774Z,6.97
2022-08-05T14:44:20.180Z,8.18
2022-08-05T14:48:02.948Z,12.07
2022-08-05T14:50:49.773Z,7.20
2022-08-05T14:54:28.752Z,7.18
2022-08-05T14:57:17.007Z,7.47
2022-08-05T15:04:29.781Z,9.18
2022-08-05T15:12:16.457Z,10.48
2022-08-05T15:15:55.402Z,6.70
2022-08-05T15:18:47.815Z,6.25
2022-08-05T15:21:52.993Z,9.85
2022-08-05T15:43:52.171Z,11.30
2022-08-05T15:46:59.515Z,7.63
2022-08-05T15:50:03.610Z,7.72
2022-08-05T15:53:09.206Z,10.73
2022-08-05T15:56:19.590Z,6.03
2022-08-05T15:59:33.598Z,9.80
2022-08-05T16:02:40.976Z,7.90
2022-08-05T16:05:52.163Z,8.10
2022-08-05T16:09:00.054Z,5.68
2022-08-05T16:12:03.961Z,11.32
2022-08-05T16:20:24.669Z,5.30
2022-08-05T16:23:53.823Z,8.32
2022-08-05T16:27:32.206Z,7.55
2022-08-05T16:30:48.156Z,6.82
2022-08-05T16:33:54.315Z,6.32
2022-08-05T16:36:59.166Z,6.30
2022-08-05T16:40:06.410Z,8.23
2022-08-05T16:43:10.802Z,5.53
2022-08-05T16:46:24.174Z,6.53
2022-08-05T16:49:29.094Z,6.22
2022-08-05T16:52:34.345Z,8.02
2022-08-05T16:55:47.101Z,10.10
2022-08-05T16:58:51.239Z,9.85
2022-08-05T17:01:56.220Z,10.73
2022-08-05T17:04:59.992Z,9.38
2022-08-05T17:08:05.287Z,8.98
2022-08-05T17:11:16.924Z,8.25
2022-08-05T17:14:34.208Z,25.55
2022-08-05T17:17:42.535Z,12.77
2022-08-05T17:20:47.257Z,13.45
2022-08-05T17:24:06.068Z,14.02
2022-08-05T17:27:16.694Z,13.52
2022-08-05T17:30:28.927Z,9.90
2022-08-05T17:33:38.958Z,11.80
2022-08-05T17:36:52.181Z,12.50
2022-08-05T17:39:59.968Z,17.75
2022-08-05T17:43:07.566Z,15.48
2022-08-05T17:46:13.921Z,15.68
2022-08-05T17:49:18.245Z,15.10
2022-08-05T17:52:21.845Z,20.65
2022-08-05T17:55:37.217Z,12.25
2022-08-05T17:58:42.211Z,12.77
2022-08-05T18:01:50.211Z,16.35
2022-08-05T18:04:55.118Z,15.63
2022-08-05T18:07:59.116Z,12.52
2022-08-05T18:11:05.211Z,17.58
2022-08-05T18:14:13.355Z,12.13
2022-08-05T18:18:00.202Z,12.65
2022-08-05T18:20:41.456Z,13.18
2022-08-05T18:23:53.670Z,15.50
2022-08-05T18:26:59.399Z,13.18
2022-08-05T18:30:03.243Z,16.30
2022-08-05T18:33:08.616Z,15.88
2022-08-05T18:36:19.046Z,15.50
2022-08-05T18:40:31.757Z,19.58
2022-08-05T18:42:48.784Z,12.48
2022-08-05T18:45:54.077Z,23.00
2022-08-05T18:49:30.485Z,14.77
2022-08-05T18:52:36.230Z,22.08
2022-08-05T18:55:40.058Z,15.38
2022-08-05T18:58:45.564Z,13.75
2022-08-05T19:01:58.495Z,17.98
2022-08-05T19:06:06.337Z,15.52
2022-08-05T19:08:30.669Z,12.82
2022-08-05T19:11:54.810Z,13.20
2022-08-05T19:15:02.628Z,12.77
2022-08-05T19:18:10.350Z,12.30
2022-08-05T19:21:15.787Z,12.65
2022-08-05T19:24:34.415Z,17.63
2022-08-05T19:27:40.315Z,15.93
2022-08-05T19:30:49.506Z,14.25
2022-08-05T19:33:56.685Z,14.57
2022-08-05T19:37:00.861Z,15.70
2022-08-05T19:40:08.078Z,14.07
2022-08-05T19:44:04.746Z,12.85
2022-08-05T19:46:43.833Z,11.57
2022-08-05T19:49:48.595Z,10.93
2022-08-05T19:52:54.075Z,16.92
2022-08-05T19:56:13.795Z,15.77
2022-08-05T19:59:54.001Z,14.63
2022-08-05T20:02:49.085Z,13.88
2022-08-05T20:05:56.824Z,14.90
2022-08-05T20:09:13.945Z,14.20
2022-08-05T20:12:19.103Z,16.00
2022-08-05T20:15:50.864Z,12.98
2022-08-05T20:18:55.419Z,13.77
2022-08-05T20:21:59.524Z,14.27
2022-08-05T20:25:03.563Z,17.42
2022-08-05T20:28:13.566Z,13.65
2022-08-05T20:31:21.659Z,19.63
2022-08-05T20:34:33.384Z,14.73
2022-08-05T20:38:05.592Z,15.57
2022-08-05T20:41:04.599Z,19.08
2022-08-05T20:44:18.721Z,19.88
2022-08-05T20:47:33.555Z,16.60
2022-08-05T20:53:56.927Z,12.52
2022-08-05T20:57:01.153Z,15.15
2022-08-05T21:00:21.295Z,19.25
2022-08-05T21:03:34.361Z,15.30
2022-08-05T21:06:45.687Z,14.73
2022-08-05T21:09:53.449Z,16.45
2022-08-05T21:13:08.782Z,17.30
2022-08-05T21:16:18.145Z,14.65
2022-08-05T21:19:21.618Z,12.68
2022-08-05T21:22:29.697Z,19.58
2022-08-05T21:25:34.356Z,15.48
2022-08-05T21:28:38.260Z,18.85
2022-08-05T21:31:54.214Z,15.98
2022-08-05T21:35:08.935Z,14.40
2022-08-05T21:38:50.198Z,14.75
2022-08-05T21:42:01.632Z,14.15
2022-08-05T21:45:25.091Z,15.20
2022-08-05T21:48:38.545Z,18.92
2022-08-05T21:52:22.373Z,16.08
2022-08-05T21:55:09.459Z,16.35
2022-08-05T21:58:13.293Z,15.88
2022-08-05T22:01:24.730Z,15.05
2022-08-05T22:04:28.655Z,17.33
2022-08-05T22:07:40.373Z,14.75
2022-08-05T22:10:57.754Z,17.15
2022-08-05T22:14:31.390Z,15.93
2022-08-05T22:17:24.937Z,16.23
2022-08-05T22:20:29.188Z,13.38
2022-08-05T22:24:02.095Z,19.48
2022-08-05T22:28:08.470Z,15.02
2022-08-05T22:30:55.771Z,13.55
2022-08-05T22:34:01.638Z,19.08
2022-08-05T22:37:05.748Z,14.85
2022-08-05T22:40:10.614Z,18.33
2022-08-05T22:43:36.713Z,17.00
2022-08-05T22:46:41.572Z,16.90
2022-08-05T22:50:21.778Z,17.23
2022-08-05T22:53:10.362Z,14.40
2022-08-05T22:56:30.230Z,19.33
2022-08-05T22:59:46.311Z,21.77
2022-08-05T23:02:53.984Z,18.05
2022-08-05T23:05:58.523Z,15.93
2022-08-05T23:09:27.903Z,14.90
2022-08-05T23:12:25.646Z,13.18
2022-08-05T23:15:35.244Z,18.95
2022-08-05T23:18:39.808Z,20.02
2022-08-05T23:21:48.636Z,15.55
2022-08-05T23:24:52.135Z,14.70
2022-08-05T23:28:00.545Z,14.15
2022-08-05T23:31:16.267Z,15.18
2022-08-05T23:34:24.694Z,16.58
2022-08-05T23:37:36.399Z,15.73
2022-08-05T23:40:40.327Z,14.70
2022-08-05T23:44:04.592Z,16.00
2022-08-05T23:47:14.431Z,20.80
2022-08-05T23:50:20.201Z,13.67
2022-08-05T23:53:23.824Z,18.33
2022-08-05T23:56:31.888Z,15.18
